createdAt,value
2023-04-30T00:00:38.892Z,4.77
2023-04-30T00:01:37.423Z,4.75
2023-04-30T00:02:37.357Z,4.70
2023-04-30T00:03:37.770Z,4.67
2023-04-30T00:04:38.036Z,4.61
2023-04-30T00:05:42.744Z,4.58
2023-04-30T00:06:40.460Z,4.55
2023-04-30T00:07:40.727Z,4.52
2023-04-30T00:08:38.905Z,4.47
2023-04-30T00:09:39.156Z,4.46
2023-04-30T00:10:40.240Z,4.46
2023-04-30T00:11:39.445Z,4.44
2023-04-30T00:12:39.636Z,4.44
2023-04-30T00:13:39.794Z,4.43
2023-04-30T00:14:40.043Z,4.42
2023-04-30T00:15:42.181Z,4.42
2023-04-30T00:16:41.850Z,4.37
2023-04-30T00:17:40.632Z,4.36
2023-04-30T00:18:40.860Z,4.37
2023-04-30T00:19:41.433Z,4.33
2023-04-30T00:21:25.768Z,4.28
2023-04-30T00:22:27.921Z,4.25
2023-04-30T00:23:26.104Z,4.19
2023-04-30T00:24:26.261Z,4.18
2023-04-30T00:25:27.375Z,4.15
2023-04-30T00:26:28.464Z,4.10
2023-04-30T00:27:26.633Z,4.08
2023-04-30T00:28:26.803Z,4.06
2023-04-30T00:29:26.942Z,4.07
2023-04-30T00:30:27.115Z,4.14
2023-04-30T00:31:29.746Z,4.18
2023-04-30T00:32:27.411Z,4.25
2023-04-30T00:33:27.670Z,4.32
2023-04-30T00:34:28.366Z,4.37
2023-04-30T00:36:31.720Z,4.47
2023-04-30T00:37:30.613Z,4.52
2023-04-30T00:38:29.836Z,4.50
2023-04-30T00:39:29.011Z,4.50
2023-04-30T00:40:29.769Z,4.47
2023-04-30T00:41:29.470Z,4.44
2023-04-30T00:42:29.624Z,4.40
2023-04-30T00:43:29.803Z,4.34
2023-04-30T00:44:29.969Z,4.29
2023-04-30T00:45:31.141Z,4.25
2023-04-30T00:46:32.360Z,4.25
2023-04-30T00:47:30.627Z,4.22
2023-04-30T00:48:31.800Z,4.26
2023-04-30T00:49:32.989Z,4.32
2023-04-30T00:50:31.140Z,4.33
2023-04-30T00:51:32.344Z,4.36
2023-04-30T00:52:33.476Z,4.36
2023-04-30T00:53:31.632Z,4.39
2023-04-30T00:54:31.803Z,4.34
2023-04-30T00:55:33.944Z,4.34
2023-04-30T00:56:35.243Z,4.36
2023-04-30T00:57:32.414Z,4.36
2023-04-30T00:58:34.159Z,4.37
2023-04-30T00:59:32.831Z,4.36
2023-04-30T01:00:33.970Z,4.36
2023-04-30T01:01:35.129Z,4.42
2023-04-30T01:02:34.356Z,4.46
2023-04-30T01:03:35.892Z,4.50
2023-04-30T01:04:35.842Z,4.47
2023-04-30T01:05:37.922Z,4.46
2023-04-30T01:06:34.407Z,4.52
2023-04-30T01:07:36.196Z,4.55
2023-04-30T01:08:35.309Z,4.55
2023-04-30T01:09:34.521Z,4.61
2023-04-30T01:10:34.733Z,4.65
2023-04-30T01:11:34.923Z,4.69
2023-04-30T01:12:37.108Z,4.76
2023-04-30T01:13:35.332Z,4.79
2023-04-30T01:14:35.469Z,4.80
2023-04-30T01:15:36.643Z,4.79
2023-04-30T01:16:35.848Z,4.76
2023-04-30T01:17:35.985Z,4.75
2023-04-30T01:18:36.253Z,4.75
2023-04-30T01:19:38.630Z,4.73
2023-04-30T01:20:37.771Z,4.70
2023-04-30T01:21:36.918Z,4.69
2023-04-30T01:22:37.040Z,4.70
2023-04-30T01:23:39.202Z,4.75
2023-04-30T01:24:37.356Z,4.77
2023-04-30T01:25:38.938Z,4.83
2023-04-30T01:26:37.616Z,4.84
2023-04-30T01:27:37.736Z,4.86
2023-04-30T01:28:37.933Z,4.86
2023-04-30T01:29:39.558Z,4.83
2023-04-30T01:30:38.212Z,4.83
2023-04-30T01:31:41.904Z,4.88
2023-04-30T01:32:38.574Z,4.88
2023-04-30T01:33:40.750Z,4.91
2023-04-30T01:34:40.886Z,4.95
2023-04-30T01:35:42.274Z,4.96
2023-04-30T01:36:39.490Z,4.98
2023-04-30T01:37:39.644Z,4.96
2023-04-30T01:38:39.780Z,4.94
2023-04-30T01:39:40.934Z,4.92
2023-04-30T01:40:41.022Z,4.88
2023-04-30T01:41:41.144Z,4.88
2023-04-30T01:42:41.253Z,4.84
2023-04-30T01:43:40.457Z,4.83
2023-04-30T01:44:40.664Z,4.86
2023-04-30T01:45:42.273Z,4.84
2023-04-30T01:46:41.321Z,4.84
2023-04-30T01:47:42.510Z,4.79
2023-04-30T01:48:42.645Z,4.79
2023-04-30T01:49:42.017Z,4.75
2023-04-30T01:50:42.350Z,4.67
2023-04-30T01:51:42.570Z,4.61
2023-04-30T01:52:42.735Z,4.61
2023-04-30T01:53:42.936Z,4.58
2023-04-30T01:54:43.132Z,4.57
2023-04-30T01:55:44.381Z,4.57
2023-04-30T01:56:43.575Z,4.57
2023-04-30T01:57:43.832Z,4.51
2023-04-30T01:58:45.951Z,4.46
2023-04-30T01:59:44.184Z,4.39
2023-04-30T02:00:46.313Z,4.36
2023-04-30T02:01:46.126Z,4.33
2023-04-30T02:02:44.928Z,4.28
2023-04-30T02:03:45.211Z,4.25
2023-04-30T02:04:45.483Z,4.19
2023-04-30T02:05:49.580Z,4.16
2023-04-30T02:06:46.844Z,4.10
2023-04-30T02:07:46.283Z,4.10
2023-04-30T02:08:47.795Z,4.14
2023-04-30T02:09:46.532Z,4.14
2023-04-30T02:10:46.679Z,4.12
2023-04-30T02:11:46.878Z,4.08
2023-04-30T02:12:49.324Z,4.08
2023-04-30T02:13:47.700Z,4.08
2023-04-30T02:14:48.935Z,4.10
2023-04-30T02:15:49.127Z,4.10
2023-04-30T02:16:48.367Z,4.14
2023-04-30T02:17:50.309Z,4.12
2023-04-30T02:18:50.299Z,4.12
2023-04-30T02:19:49.666Z,4.08
2023-04-30T02:20:49.842Z,4.07
2023-04-30T02:21:51.480Z,4.07
2023-04-30T02:22:52.679Z,4.06
2023-04-30T02:23:50.307Z,4.01
2023-04-30T02:24:50.559Z,3.97
2023-04-30T02:25:52.197Z,3.90
2023-04-30T02:26:51.873Z,3.86
2023-04-30T02:27:51.089Z,3.83
2023-04-30T02:28:51.286Z,3.82
2023-04-30T02:29:52.879Z,3.79
2023-04-30T02:30:51.739Z,3.72
2023-04-30T02:31:53.896Z,3.71
2023-04-30T02:32:53.307Z,3.68
2023-04-30T02:33:53.596Z,3.67
2023-04-30T02:34:52.843Z,3.68
2023-04-30T02:35:54.259Z,3.72
2023-04-30T02:36:53.460Z,3.82
2023-04-30T02:37:54.844Z,3.85
2023-04-30T02:38:54.075Z,3.89
2023-04-30T02:39:54.754Z,3.94
2023-04-30T02:40:55.480Z,3.98
2023-04-30T02:41:55.195Z,4.01
2023-04-30T02:42:55.395Z,4.04
2023-04-30T02:43:56.589Z,4.06
2023-04-30T02:44:56.992Z,4.06
2023-04-30T02:45:56.255Z,4.00
2023-04-30T02:46:58.105Z,3.96
2023-04-30T02:47:57.173Z,3.94
2023-04-30T02:48:57.968Z,3.92
2023-04-30T02:49:59.986Z,3.90
2023-04-30T02:50:57.677Z,3.88
2023-04-30T02:51:58.039Z,3.85
2023-04-30T02:52:58.365Z,3.86
2023-04-30T02:53:59.804Z,3.86
2023-04-30T02:55:00.526Z,3.86
2023-04-30T02:55:59.500Z,3.79
2023-04-30T02:56:59.839Z,3.76
2023-04-30T02:58:01.999Z,3.75
2023-04-30T02:59:00.966Z,3.70
2023-04-30T03:00:01.626Z,3.68
2023-04-30T03:01:00.315Z,3.64
2023-04-30T03:02:00.582Z,3.58
2023-04-30T03:03:02.987Z,3.53
2023-04-30T03:04:01.258Z,3.44
2023-04-30T03:05:02.517Z,3.39
2023-04-30T03:06:04.234Z,3.40
2023-04-30T03:07:03.302Z,3.40
2023-04-30T03:08:02.013Z,3.36
2023-04-30T03:09:02.223Z,3.36
2023-04-30T03:10:02.407Z,3.33
2023-04-30T03:11:02.556Z,3.30
2023-04-30T03:12:03.776Z,3.33
2023-04-30T03:13:02.905Z,3.39
2023-04-30T03:14:03.130Z,3.44
2023-04-30T03:15:05.182Z,3.43
2023-04-30T03:16:03.407Z,3.43
2023-04-30T03:17:04.684Z,3.44
2023-04-30T03:18:05.945Z,3.43
2023-04-30T03:19:05.169Z,3.42
2023-04-30T03:20:06.552Z,3.36
2023-04-30T03:21:04.758Z,3.33
2023-04-30T03:22:05.036Z,3.30
2023-04-30T03:23:07.186Z,3.27
2023-04-30T03:24:05.419Z,3.23
2023-04-30T03:25:05.613Z,3.18
2023-04-30T03:26:07.864Z,3.23
2023-04-30T03:27:07.975Z,3.27
2023-04-30T03:28:07.658Z,3.28
2023-04-30T03:29:06.458Z,3.34
2023-04-30T03:30:06.648Z,3.33
2023-04-30T03:31:08.918Z,3.31
2023-04-30T03:32:07.157Z,3.34
2023-04-30T03:33:09.466Z,3.34
2023-04-30T03:34:07.803Z,3.33
2023-04-30T03:35:09.027Z,3.30
2023-04-30T03:36:10.216Z,3.24
2023-04-30T03:37:09.452Z,3.24
2023-04-30T03:38:08.699Z,3.24
2023-04-30T03:39:09.011Z,3.18
2023-04-30T03:40:11.209Z,3.16
2023-04-30T03:41:09.576Z,3.16
2023-04-30T03:42:09.836Z,3.20
2023-04-30T03:43:09.977Z,3.16
2023-04-30T03:44:10.168Z,3.12
2023-04-30T03:45:10.325Z,3.07
2023-04-30T03:46:11.573Z,3.03
2023-04-30T03:47:10.770Z,2.95
2023-04-30T03:48:12.961Z,2.88
2023-04-30T03:49:11.220Z,2.88
2023-04-30T03:50:11.639Z,2.88
2023-04-30T03:51:11.880Z,2.85
2023-04-30T03:52:13.108Z,2.85
2023-04-30T03:53:14.253Z,2.84
2023-04-30T03:54:13.993Z,2.79
2023-04-30T03:55:15.064Z,2.81
2023-04-30T03:56:12.743Z,2.91
2023-04-30T03:57:12.925Z,2.97
2023-04-30T03:58:13.219Z,2.98
2023-04-30T03:59:14.934Z,2.97
2023-04-30T04:00:15.768Z,3.00
2023-04-30T04:01:13.938Z,3.05
2023-04-30T04:02:15.180Z,3.09
2023-04-30T04:03:14.539Z,3.12
2023-04-30T04:04:14.877Z,3.12
2023-04-30T04:05:18.976Z,3.12
2023-04-30T04:06:17.157Z,3.09
2023-04-30T04:07:16.394Z,3.07
2023-04-30T04:08:16.609Z,3.10
2023-04-30T04:09:16.860Z,3.16
2023-04-30T04:10:16.194Z,3.21
2023-04-30T04:11:17.496Z,3.23
2023-04-30T04:12:17.660Z,3.27
2023-04-30T04:13:17.815Z,3.25
2023-04-30T04:14:17.138Z,3.27
2023-04-30T04:15:17.317Z,3.28
2023-04-30T04:16:17.717Z,3.28
2023-04-30T04:17:18.938Z,3.27
2023-04-30T04:18:20.108Z,3.25
2023-04-30T04:19:18.556Z,3.25
2023-04-30T04:20:20.911Z,3.25
2023-04-30T04:21:19.160Z,3.27
2023-04-30T04:22:19.346Z,3.25
2023-04-30T04:23:19.484Z,3.28
2023-04-30T04:24:21.728Z,3.27
2023-04-30T04:25:21.627Z,3.25
2023-04-30T04:26:20.369Z,3.23
2023-04-30T04:27:21.645Z,3.21
2023-04-30T04:28:23.786Z,3.18
2023-04-30T04:29:22.080Z,3.16
2023-04-30T04:30:23.454Z,3.15
2023-04-30T04:31:21.772Z,3.15
2023-04-30T04:32:21.968Z,3.16
2023-04-30T04:33:23.136Z,3.20
2023-04-30T04:34:23.976Z,3.23
2023-04-30T04:35:30.314Z,3.27
2023-04-30T04:36:24.946Z,3.33
2023-04-30T04:37:24.218Z,3.36
2023-04-30T04:38:24.407Z,3.42
2023-04-30T04:39:25.074Z,3.46
2023-04-30T04:40:25.726Z,3.46
2023-04-30T04:41:23.873Z,3.47
2023-04-30T04:42:24.067Z,3.47
2023-04-30T04:43:24.434Z,3.47
2023-04-30T04:44:25.887Z,3.44
2023-04-30T04:45:24.692Z,3.43
2023-04-30T04:46:24.926Z,3.42
2023-04-30T04:47:25.199Z,3.46
2023-04-30T04:48:25.482Z,3.46
2023-04-30T04:49:25.859Z,3.49
2023-04-30T04:50:26.181Z,3.52
2023-04-30T04:51:27.413Z,3.57
2023-04-30T04:52:26.685Z,3.64
2023-04-30T04:53:26.972Z,3.75
2023-04-30T04:54:29.084Z,3.86
2023-04-30T04:55:28.313Z,3.96
2023-04-30T04:56:27.479Z,4.01
2023-04-30T04:57:27.738Z,4.12
2023-04-30T04:58:27.966Z,4.21
2023-04-30T04:59:28.241Z,4.34
2023-04-30T05:00:28.549Z,4.46
2023-04-30T05:01:30.707Z,4.55
2023-04-30T05:02:29.048Z,4.65
2023-04-30T05:03:30.472Z,4.73
2023-04-30T05:04:32.482Z,4.80
2023-04-30T05:05:41.956Z,4.88
2023-04-30T05:06:31.309Z,4.94
2023-04-30T05:07:30.521Z,5.05
2023-04-30T05:08:31.735Z,5.14
2023-04-30T05:09:30.990Z,5.28
2023-04-30T05:10:33.164Z,5.40
2023-04-30T05:11:31.460Z,5.52
2023-04-30T05:12:33.277Z,5.64
2023-04-30T05:13:32.942Z,5.77
2023-04-30T05:14:32.083Z,5.88
2023-04-30T05:15:33.250Z,6.00
2023-04-30T05:16:32.486Z,6.11
2023-04-30T05:17:32.757Z,6.25
2023-04-30T05:18:33.051Z,6.35
2023-04-30T05:19:33.282Z,6.48
2023-04-30T05:20:33.598Z,6.62
2023-04-30T05:21:33.959Z,6.73
2023-04-30T05:22:36.659Z,6.87
2023-04-30T05:23:35.456Z,6.94
2023-04-30T05:24:35.975Z,7.01
2023-04-30T05:25:35.724Z,7.04
2023-04-30T05:26:38.034Z,7.05
2023-04-30T05:27:35.795Z,7.02
2023-04-30T05:28:37.545Z,7.01
2023-04-30T05:29:36.386Z,6.98
2023-04-30T05:30:37.666Z,7.02
2023-04-30T05:31:36.928Z,7.12
2023-04-30T05:32:38.249Z,7.20
2023-04-30T05:33:39.419Z,7.26
2023-04-30T05:34:38.877Z,7.34
2023-04-30T05:35:46.436Z,7.47
2023-04-30T05:36:40.323Z,7.59
2023-04-30T05:37:39.311Z,7.60
2023-04-30T05:38:38.539Z,7.66
2023-04-30T05:39:40.955Z,7.74
2023-04-30T05:40:40.765Z,7.87
2023-04-30T05:41:40.012Z,8.02
2023-04-30T05:42:40.855Z,8.14
2023-04-30T05:43:40.465Z,8.25
2023-04-30T05:44:41.696Z,8.33
2023-04-30T05:45:41.631Z,8.36
2023-04-30T05:46:40.371Z,8.42
2023-04-30T05:47:41.689Z,8.54
2023-04-30T05:48:41.120Z,8.66
2023-04-30T05:49:41.351Z,8.81
2023-04-30T05:50:42.612Z,8.99
2023-04-30T05:51:44.032Z,9.13
2023-04-30T05:52:43.322Z,9.25
2023-04-30T05:53:43.519Z,9.35
2023-04-30T05:54:43.678Z,9.45
2023-04-30T05:55:42.930Z,9.58
2023-04-30T05:56:44.315Z,9.68
2023-04-30T05:57:45.633Z,9.78
2023-04-30T05:58:46.080Z,9.82
2023-04-30T05:59:44.359Z,9.88
2023-04-30T06:00:46.496Z,9.97
2023-04-30T06:01:44.783Z,9.91
2023-04-30T06:02:46.348Z,9.83
2023-04-30T06:03:46.093Z,9.81
2023-04-30T06:04:47.321Z,9.85
2023-04-30T06:05:47.686Z,10.00
2023-04-30T06:06:47.920Z,10.21
2023-04-30T06:07:48.289Z,10.40
2023-04-30T06:08:46.764Z,10.62
2023-04-30T06:09:48.438Z,10.76
2023-04-30T06:10:48.103Z,10.84
2023-04-30T06:11:48.337Z,10.86
2023-04-30T06:12:47.724Z,10.96
2023-04-30T06:13:50.200Z,11.14
2023-04-30T06:14:48.360Z,11.32
2023-04-30T06:15:50.501Z,11.41
2023-04-30T06:16:49.381Z,11.44
2023-04-30T06:17:53.808Z,11.44
2023-04-30T06:18:52.255Z,11.52
2023-04-30T06:19:49.790Z,11.62
2023-04-30T06:20:49.958Z,11.72
2023-04-30T06:21:50.357Z,11.87
2023-04-30T06:22:50.564Z,12.01
2023-04-30T06:23:50.740Z,12.08
2023-04-30T06:24:50.953Z,12.19
2023-04-30T06:25:51.124Z,12.27
2023-04-30T06:26:51.345Z,12.41
2023-04-30T06:27:53.456Z,12.45
2023-04-30T06:28:51.615Z,12.57
2023-04-30T06:29:52.008Z,12.69
2023-04-30T06:30:51.843Z,12.81
2023-04-30T06:31:52.150Z,12.82
2023-04-30T06:32:52.408Z,12.84
2023-04-30T06:33:54.566Z,12.87
2023-04-30T06:34:54.996Z,12.97
2023-04-30T06:35:53.126Z,13.09
2023-04-30T06:36:57.118Z,13.17
2023-04-30T06:37:54.767Z,13.22
2023-04-30T06:38:57.394Z,13.27
2023-04-30T06:39:54.258Z,13.33
2023-04-30T06:40:55.472Z,13.43
2023-04-30T06:41:54.611Z,13.54
2023-04-30T06:42:54.772Z,13.67
2023-04-30T06:43:55.176Z,13.70
2023-04-30T06:44:57.308Z,13.87
2023-04-30T06:45:57.270Z,13.81
2023-04-30T06:46:55.910Z,13.59
2023-04-30T06:47:56.317Z,13.30
2023-04-30T06:48:56.519Z,13.22
2023-04-30T06:49:58.099Z,13.25
2023-04-30T06:50:56.935Z,13.49
2023-04-30T06:51:59.237Z,13.80
2023-04-30T06:52:57.487Z,14.07
2023-04-30T06:53:58.607Z,14.29
2023-04-30T06:54:59.715Z,14.50
2023-04-30T06:55:59.916Z,14.57
2023-04-30T06:57:00.037Z,14.68
2023-04-30T06:58:00.204Z,14.86
2023-04-30T06:58:58.379Z,14.98
2023-04-30T06:59:59.654Z,14.94
2023-04-30T07:00:59.825Z,14.88
2023-04-30T07:02:00.034Z,14.88
2023-04-30T07:03:01.222Z,14.83
2023-04-30T07:04:01.382Z,14.83
2023-04-30T07:05:00.613Z,14.90
2023-04-30T07:06:00.963Z,15.05
2023-04-30T07:07:00.265Z,15.17
2023-04-30T07:08:00.415Z,15.27
2023-04-30T07:09:00.552Z,15.41
2023-04-30T07:10:00.696Z,15.41
2023-04-30T07:11:01.112Z,15.48
2023-04-30T07:12:01.287Z,15.66
2023-04-30T07:13:01.434Z,15.79
2023-04-30T07:14:01.678Z,15.99
2023-04-30T07:15:02.781Z,15.89
2023-04-30T07:16:03.952Z,15.93
2023-04-30T07:17:02.123Z,16.01
2023-04-30T07:18:04.223Z,16.11
2023-04-30T07:19:04.418Z,16.23
2023-04-30T07:20:04.588Z,16.49
2023-04-30T07:21:02.733Z,16.62
2023-04-30T07:22:03.900Z,16.56
2023-04-30T07:23:03.967Z,16.53
2023-04-30T07:24:03.118Z,16.44
2023-04-30T07:25:05.266Z,16.38
2023-04-30T07:26:04.954Z,16.38
2023-04-30T07:27:03.665Z,16.35
2023-04-30T07:28:04.889Z,16.37
2023-04-30T07:29:05.008Z,16.40
2023-04-30T07:30:04.123Z,16.40
2023-04-30T07:31:05.431Z,16.49
2023-04-30T07:32:05.559Z,16.68
2023-04-30T07:33:05.661Z,16.93
2023-04-30T07:34:06.511Z,17.17
2023-04-30T07:35:07.445Z,17.36
2023-04-30T07:36:07.460Z,17.51
2023-04-30T07:37:06.540Z,17.54
2023-04-30T07:38:05.674Z,17.57
2023-04-30T07:39:05.812Z,17.51
2023-04-30T07:40:05.943Z,17.33
2023-04-30T07:41:09.595Z,17.17
2023-04-30T07:42:06.252Z,17.25
2023-04-30T07:43:11.229Z,17.40
2023-04-30T07:44:06.938Z,17.51
2023-04-30T07:45:09.116Z,17.63
2023-04-30T07:46:07.325Z,17.74
2023-04-30T07:47:07.495Z,17.92
2023-04-30T07:48:08.681Z,17.94
2023-04-30T07:49:09.833Z,17.87
2023-04-30T07:50:08.960Z,17.87
2023-04-30T07:51:09.107Z,17.91
2023-04-30T07:52:09.628Z,17.91
2023-04-30T07:53:09.237Z,17.82
2023-04-30T07:54:08.360Z,17.69
2023-04-30T07:55:10.442Z,17.70
2023-04-30T07:56:10.849Z,17.70
2023-04-30T07:57:08.953Z,17.81
2023-04-30T07:58:10.143Z,18.00
2023-04-30T07:59:09.349Z,18.25
2023-04-30T08:00:11.493Z,18.50
2023-04-30T08:01:09.726Z,18.61
2023-04-30T08:02:09.912Z,18.57
2023-04-30T08:03:10.173Z,18.67
2023-04-30T08:04:10.582Z,18.70
2023-04-30T08:05:11.911Z,18.70
2023-04-30T08:06:10.587Z,18.58
2023-04-30T08:07:10.779Z,18.46
2023-04-30T08:08:12.990Z,18.44
2023-04-30T08:09:13.100Z,18.50
2023-04-30T08:10:11.245Z,18.50
2023-04-30T08:11:11.367Z,18.73
2023-04-30T08:12:11.529Z,18.97
2023-04-30T08:13:12.677Z,19.17
2023-04-30T08:14:12.828Z,19.23
2023-04-30T08:15:14.624Z,19.24
2023-04-30T08:16:12.350Z,19.33
2023-04-30T08:17:12.480Z,19.33
2023-04-30T08:18:13.769Z,19.51
2023-04-30T08:19:15.968Z,19.50
2023-04-30T08:20:13.227Z,19.50
2023-04-30T08:21:13.422Z,19.36
2023-04-30T08:22:13.681Z,19.23
2023-04-30T08:23:13.823Z,19.32
2023-04-30T08:24:14.071Z,19.48
2023-04-30T08:25:15.233Z,19.57
2023-04-30T08:26:15.374Z,19.54
2023-04-30T08:27:14.540Z,19.57
2023-04-30T08:28:15.636Z,19.40
2023-04-30T08:29:14.777Z,19.31
2023-04-30T08:30:14.930Z,19.23
2023-04-30T08:31:17.455Z,19.25
2023-04-30T08:32:17.702Z,19.20
2023-04-30T08:33:16.527Z,19.10
2023-04-30T08:34:17.517Z,18.95
2023-04-30T08:35:17.794Z,18.97
2023-04-30T08:36:15.917Z,18.84
2023-04-30T08:37:16.092Z,18.62
2023-04-30T08:38:16.244Z,18.46
2023-04-30T08:39:16.837Z,18.54
2023-04-30T08:40:17.379Z,18.70
2023-04-30T08:41:16.505Z,18.79
2023-04-30T08:42:16.626Z,18.92
2023-04-30T08:43:16.780Z,19.11
2023-04-30T08:44:17.945Z,19.10
2023-04-30T08:45:19.052Z,18.94
2023-04-30T08:46:17.414Z,18.95
2023-04-30T08:47:17.590Z,18.76
2023-04-30T08:48:18.696Z,18.82
2023-04-30T08:49:17.812Z,19.02
2023-04-30T08:50:18.050Z,19.17
2023-04-30T08:51:18.645Z,19.32
2023-04-30T08:52:19.273Z,19.33
2023-04-30T08:53:19.366Z,19.24
2023-04-30T08:54:18.535Z,19.24
2023-04-30T08:55:19.934Z,19.21
2023-04-30T08:56:19.086Z,19.15
2023-04-30T08:57:19.251Z,18.87
2023-04-30T08:58:19.366Z,18.65
2023-04-30T08:59:19.526Z,18.49
2023-04-30T09:00:20.607Z,18.52
2023-04-30T09:01:19.785Z,18.73
2023-04-30T09:02:20.048Z,18.87
2023-04-30T09:03:20.351Z,18.91
2023-04-30T09:04:22.033Z,18.94
2023-04-30T09:05:25.685Z,19.11
2023-04-30T09:06:22.013Z,19.25
2023-04-30T09:07:21.482Z,19.25
2023-04-30T09:08:22.681Z,19.47
2023-04-30T09:09:22.798Z,19.42
2023-04-30T09:10:22.072Z,19.47
2023-04-30T09:11:22.245Z,19.51
2023-04-30T09:12:22.397Z,19.57
2023-04-30T09:13:22.812Z,19.76
2023-04-30T09:14:22.995Z,19.98
2023-04-30T09:15:25.039Z,20.05
2023-04-30T09:16:23.228Z,20.16
2023-04-30T09:17:23.420Z,20.23
2023-04-30T09:18:25.553Z,20.23
2023-04-30T09:19:23.655Z,20.21
2023-04-30T09:20:23.805Z,19.80
2023-04-30T09:21:23.964Z,19.65
2023-04-30T09:22:25.117Z,19.54
2023-04-30T09:23:24.272Z,19.58
2023-04-30T09:24:26.916Z,19.65
2023-04-30T09:25:25.563Z,19.58
2023-04-30T09:26:24.675Z,19.58
2023-04-30T09:27:25.990Z,19.73
2023-04-30T09:28:25.095Z,19.84
2023-04-30T09:29:25.788Z,19.94
2023-04-30T09:30:25.512Z,20.05
2023-04-30T09:31:27.677Z,20.08
2023-04-30T09:32:27.810Z,20.05
2023-04-30T09:33:27.013Z,19.88
2023-04-30T09:34:26.366Z,19.83
2023-04-30T09:36:29.383Z,19.93
2023-04-30T09:37:28.940Z,19.95
2023-04-30T09:38:27.203Z,19.87
2023-04-30T09:39:27.329Z,19.93
2023-04-30T09:40:27.449Z,19.91
2023-04-30T09:41:27.724Z,20.06
2023-04-30T09:42:27.982Z,20.21
2023-04-30T09:43:28.440Z,20.27
2023-04-30T09:44:29.509Z,20.13
2023-04-30T09:45:28.706Z,20.00
2023-04-30T09:46:29.093Z,19.97
2023-04-30T09:47:29.294Z,19.93
2023-04-30T09:48:30.564Z,19.88
2023-04-30T09:49:30.774Z,20.00
2023-04-30T09:50:31.334Z,20.12
2023-04-30T09:51:30.002Z,19.53
2023-04-30T09:52:30.126Z,19.31
2023-04-30T09:53:30.254Z,19.32
2023-04-30T09:54:31.404Z,19.54
2023-04-30T09:55:32.636Z,19.97
2023-04-30T09:56:31.798Z,20.18
2023-04-30T09:57:31.153Z,20.30
2023-04-30T09:58:31.599Z,20.30
2023-04-30T09:59:32.376Z,20.28
2023-04-30T10:00:32.963Z,20.20
2023-04-30T10:01:33.109Z,20.21
2023-04-30T10:02:32.252Z,20.25
2023-04-30T10:03:34.372Z,20.30
2023-04-30T10:04:34.489Z,20.42
2023-04-30T10:05:34.071Z,20.54
2023-04-30T10:06:34.743Z,20.51
2023-04-30T10:07:33.848Z,20.47
2023-04-30T10:08:32.996Z,20.38
2023-04-30T10:09:35.111Z,20.46
2023-04-30T10:10:35.135Z,20.51
2023-04-30T10:11:33.290Z,20.47
2023-04-30T10:12:35.382Z,20.35
2023-04-30T10:13:33.465Z,20.28
2023-04-30T10:14:33.565Z,20.34
2023-04-30T10:15:34.618Z,20.35
2023-04-30T10:16:33.795Z,20.42
2023-04-30T10:17:34.398Z,20.34
2023-04-30T10:18:34.084Z,20.24
2023-04-30T10:19:34.273Z,20.31
2023-04-30T10:20:34.326Z,20.38
2023-04-30T10:21:35.955Z,20.43
2023-04-30T10:22:34.537Z,20.35
2023-04-30T10:23:34.613Z,20.43
2023-04-30T10:24:34.682Z,20.46
2023-04-30T10:25:37.189Z,20.47
2023-04-30T10:26:34.761Z,20.53
2023-04-30T10:27:34.979Z,20.58
2023-04-30T10:28:35.087Z,20.53
2023-04-30T10:29:36.795Z,20.53
2023-04-30T10:30:36.480Z,20.38
2023-04-30T10:31:36.518Z,20.35
2023-04-30T10:32:35.760Z,20.33
2023-04-30T10:33:36.184Z,20.41
2023-04-30T10:34:39.134Z,20.41
2023-04-30T10:36:37.788Z,20.59
2023-04-30T10:37:37.137Z,20.69
2023-04-30T10:38:38.773Z,20.84
2023-04-30T10:39:36.842Z,20.91
2023-04-30T10:40:38.611Z,20.99
2023-04-30T10:41:38.699Z,20.96
2023-04-30T10:42:37.304Z,21.02
2023-04-30T10:43:38.434Z,20.99
2023-04-30T10:44:37.596Z,20.80
2023-04-30T10:45:37.956Z,20.38
2023-04-30T10:46:38.289Z,20.23
2023-04-30T10:47:38.529Z,19.93
2023-04-30T10:48:38.742Z,19.95
2023-04-30T10:49:42.404Z,19.86
2023-04-30T10:50:40.770Z,19.86
2023-04-30T10:51:39.160Z,19.55
2023-04-30T10:52:41.026Z,19.31
2023-04-30T10:53:40.275Z,19.17
2023-04-30T10:54:43.933Z,19.24
2023-04-30T10:55:42.226Z,19.31
2023-04-30T10:56:40.474Z,19.36
2023-04-30T10:57:40.553Z,19.38
2023-04-30T10:58:42.607Z,19.28
2023-04-30T10:59:40.687Z,19.32
2023-04-30T11:00:43.760Z,19.63
2023-04-30T11:01:43.313Z,19.79
2023-04-30T11:02:41.980Z,19.87
2023-04-30T11:03:42.911Z,19.87
2023-04-30T11:04:44.008Z,19.86
2023-04-30T11:05:52.719Z,19.90
2023-04-30T11:06:44.983Z,19.91
2023-04-30T11:07:42.393Z,20.12
2023-04-30T11:08:42.487Z,20.28
2023-04-30T11:09:42.580Z,20.25
2023-04-30T11:10:45.199Z,20.28
2023-04-30T11:11:43.981Z,20.30
2023-04-30T11:12:44.621Z,20.12
2023-04-30T11:13:45.230Z,19.94
2023-04-30T11:14:43.338Z,19.79
2023-04-30T11:15:44.439Z,19.46
2023-04-30T11:16:43.660Z,19.31
2023-04-30T11:17:44.834Z,19.24
2023-04-30T11:18:43.992Z,19.23
2023-04-30T11:19:46.037Z,19.15
2023-04-30T11:20:44.125Z,19.32
2023-04-30T11:21:44.241Z,19.46
2023-04-30T11:22:45.112Z,19.46
2023-04-30T11:23:44.763Z,19.40
2023-04-30T11:24:44.879Z,19.47
2023-04-30T11:25:47.122Z,19.57
2023-04-30T11:26:46.112Z,19.69
2023-04-30T11:27:47.415Z,19.78
2023-04-30T11:28:45.517Z,19.84
2023-04-30T11:29:45.672Z,19.86
2023-04-30T11:30:46.750Z,19.76
2023-04-30T11:31:47.391Z,19.72
2023-04-30T11:32:46.962Z,19.70
2023-04-30T11:33:47.975Z,19.78
2023-04-30T11:34:47.050Z,20.06
2023-04-30T11:36:47.376Z,20.50
2023-04-30T11:37:46.622Z,20.56
2023-04-30T11:38:47.671Z,20.56
2023-04-30T11:39:46.758Z,20.62
2023-04-30T11:40:47.806Z,20.61
2023-04-30T11:41:47.017Z,20.35
2023-04-30T11:42:47.142Z,20.31
2023-04-30T11:43:49.327Z,20.25
2023-04-30T11:44:47.778Z,20.35
2023-04-30T11:45:48.527Z,20.42
2023-04-30T11:46:47.939Z,20.43
2023-04-30T11:47:48.522Z,20.31
2023-04-30T11:48:48.628Z,20.16
2023-04-30T11:49:47.944Z,20.02
2023-04-30T11:50:48.863Z,19.98
2023-04-30T11:51:48.041Z,19.91
2023-04-30T11:52:48.521Z,19.73
2023-04-30T11:53:48.256Z,19.60
2023-04-30T11:54:48.486Z,19.48
2023-04-30T11:55:50.125Z,19.57
2023-04-30T11:56:50.573Z,19.60
2023-04-30T11:57:50.851Z,19.69
2023-04-30T11:58:49.994Z,19.79
2023-04-30T11:59:51.205Z,19.58
2023-04-30T12:00:52.713Z,19.38
2023-04-30T12:01:49.379Z,19.25
2023-04-30T12:02:51.617Z,19.38
2023-04-30T12:03:51.540Z,19.61
2023-04-30T12:04:51.677Z,19.97
2023-04-30T12:05:51.028Z,20.30
2023-04-30T12:06:50.417Z,20.54
2023-04-30T12:07:51.288Z,20.80
2023-04-30T12:08:50.336Z,21.05
2023-04-30T12:09:52.966Z,21.23
2023-04-30T12:10:50.825Z,21.23
2023-04-30T12:11:51.556Z,21.24
2023-04-30T12:12:52.942Z,21.26
2023-04-30T12:13:53.244Z,21.32
2023-04-30T12:14:54.286Z,21.23
2023-04-30T12:15:54.511Z,21.20
2023-04-30T12:16:51.875Z,20.95
2023-04-30T12:17:53.199Z,20.76
2023-04-30T12:18:53.389Z,20.53
2023-04-30T12:19:52.987Z,20.43
2023-04-30T12:20:52.853Z,20.28
2023-04-30T12:21:52.964Z,20.10
2023-04-30T12:22:53.358Z,20.06
2023-04-30T12:23:54.898Z,19.94
2023-04-30T12:24:53.499Z,19.98
2023-04-30T12:25:54.647Z,20.02
2023-04-30T12:26:54.093Z,19.97
2023-04-30T12:27:54.273Z,19.75
2023-04-30T12:28:56.414Z,19.60
2023-04-30T12:29:54.878Z,19.53
2023-04-30T12:30:56.850Z,19.46
2023-04-30T12:31:55.094Z,19.43
2023-04-30T12:32:55.474Z,19.43
2023-04-30T12:33:57.777Z,19.36
2023-04-30T12:34:58.439Z,19.32
2023-04-30T12:35:57.909Z,19.23
2023-04-30T12:36:58.165Z,19.14
2023-04-30T12:37:57.212Z,18.98
2023-04-30T12:38:56.312Z,18.90
2023-04-30T12:39:56.625Z,18.80
2023-04-30T12:40:56.778Z,18.68
2023-04-30T12:41:56.986Z,18.67
2023-04-30T12:42:59.146Z,18.73
2023-04-30T12:43:57.877Z,18.76
2023-04-30T12:44:58.745Z,18.79
2023-04-30T12:45:57.935Z,18.83
2023-04-30T12:46:58.137Z,18.84
2023-04-30T12:47:58.341Z,18.87
2023-04-30T12:48:58.487Z,18.91
2023-04-30T12:49:59.206Z,18.82
2023-04-30T12:50:58.839Z,18.68
2023-04-30T12:51:58.935Z,18.54
2023-04-30T12:52:59.234Z,18.44
2023-04-30T12:53:59.891Z,18.42
2023-04-30T12:54:59.724Z,18.43
2023-04-30T12:56:00.288Z,18.47
2023-04-30T12:57:00.950Z,18.57
2023-04-30T12:58:00.063Z,18.61
2023-04-30T12:59:02.158Z,18.64
2023-04-30T13:00:00.322Z,18.65
2023-04-30T13:01:00.586Z,18.68
2023-04-30T13:02:00.874Z,18.72
2023-04-30T13:03:03.192Z,18.74
2023-04-30T13:04:01.564Z,18.76
2023-04-30T13:05:03.395Z,18.67
2023-04-30T13:06:02.549Z,18.64
2023-04-30T13:07:03.761Z,18.57
2023-04-30T13:08:02.019Z,18.52
2023-04-30T13:09:04.149Z,18.49
2023-04-30T13:10:02.290Z,18.54
2023-04-30T13:11:02.402Z,18.58
2023-04-30T13:12:02.466Z,18.58